This is the latest recevied weather packets stored in our database for station/object VA2EYZ-13. If no packets are shown the sender has not sent any weather packets the latest 10 day(s).
| Time | Temp. | Humidity | Pressure | Rain* | Wind** | Luminosity | Snow |
|---|---|---|---|---|---|---|---|
| 1788138923 | 61° F | 90% | 763.7 mmHg | - | - | - | - |
| 1788138316 | 61° F | 90% | 763.7 mmHg | - | - | - | - |
| 1788137059 | 61° F | 92% | 763.6 mmHg | - | - | - | - |
| 1788135603 | 61° F | 92% | 762.8 mmHg | - | - | - | - |
| 1788132759 | 64° F | 86% | 762.1 mmHg | - | - | - | - |
| 1788129743 | 67° F | 84% | 762.1 mmHg | - | - | - | - |
| 1788129220 | 67° F | 90% | 762.1 mmHg | - | - | - | - |
| 1788127651 | 66° F | 88% | 761.3 mmHg | - | - | - | - |
| 1788125204 | 71° F | 78% | 761.5 mmHg | - | - | - | - |
| 1788123852 | 71° F | 78% | 761.3 mmHg | - | - | - | - |
| 1788122807 | 73° F | 76% | 761.2 mmHg | - | - | - | - |
| 1788121998 | 74° F | 70% | 761.2 mmHg | - | - | - | - |
| 1788121677 | 74° F | 69% | 760.6 mmHg | - | - | - | - |
| 1788121306 | 74° F | 69% | 760.6 mmHg | - | - | - | - |
| 1788120968 | 75° F | 68% | 760.6 mmHg | - | - | - | - |
| 1788119803 | 75° F | 67% | 760.6 mmHg | - | - | - | - |
| 1788119449 | 75° F | 67% | 760.6 mmHg | - | - | - | - |
| 1788118287 | 75° F | 68% | 761.3 mmHg | - | - | - | - |
| 1788117964 | 75° F | 68% | 761.3 mmHg | - | - | - | - |
| 1788117441 | 75° F | 67% | 761.3 mmHg | - | - | - | - |
| 1788115619 | 74° F | 70% | 761.6 mmHg | - | - | - | - |
| 1788115282 | 74° F | 72% | 761.3 mmHg | - | - | - | - |
| 1788114084 | 74° F | 72% | 761.3 mmHg | - | - | - | - |
| 1788113729 | 74° F | 72% | 761.3 mmHg | - | - | - | - |
| 1788113324 | 74° F | 73% | 761.3 mmHg | - | - | - | - |
* Rain since midnight (hover to see other rain measurements)
** Current wind speed in m/s (hover to see current wind gust speed)